sensor_id;sensor_type;location;lat;lon;timestamp;pressure;altitude;pressure_sealevel;temperature;humidity
46045;BME280;31781;54.094;13.428;2022-08-07T00:00:00;102680.78;;;15.83;56.93
46045;BME280;31781;54.094;13.428;2022-08-07T00:05:04;102678.03;;;15.83;55.48
46045;BME280;31781;54.094;13.428;2022-08-07T00:10:22;102671.78;;;15.89;54.46
46045;BME280;31781;54.094;13.428;2022-08-07T00:15:28;102679.06;;;15.82;55.42
46045;BME280;31781;54.094;13.428;2022-08-07T00:20:46;102682.88;;;15.81;56.85
46045;BME280;31781;54.094;13.428;2022-08-07T00:25:55;102678.84;;;15.77;57.12
46045;BME280;31781;54.094;13.428;2022-08-07T00:31:04;102667.19;;;15.75;55.77
46045;BME280;31781;54.094;13.428;2022-08-07T00:36:13;102664.37;;;15.68;56.95
46045;BME280;31781;54.094;13.428;2022-08-07T00:41:31;102668.56;;;15.64;57.22
46045;BME280;31781;54.094;13.428;2022-08-07T00:46:53;102667.06;;;15.62;54.86
46045;BME280;31781;54.094;13.428;2022-08-07T00:51:56;102662.56;;;15.54;57.01
46045;BME280;31781;54.094;13.428;2022-08-07T00:57:04;102664.00;;;15.50;56.88
46045;BME280;31781;54.094;13.428;2022-08-07T01:02:10;102662.47;;;15.47;56.15
46045;BME280;31781;54.094;13.428;2022-08-07T01:07:29;102661.31;;;15.42;57.25
46045;BME280;31781;54.094;13.428;2022-08-07T01:12:41;102665.72;;;15.36;57.71
46045;BME280;31781;54.094;13.428;2022-08-07T01:17:54;102663.38;;;15.33;56.09
46045;BME280;31781;54.094;13.428;2022-08-07T01:23:03;102667.91;;;15.26;57.57
46045;BME280;31781;54.094;13.428;2022-08-07T01:28:13;102667.44;;;15.23;56.31
46045;BME280;31781;54.094;13.428;2022-08-07T01:33:32;102660.06;;;15.23;55.81
46045;BME280;31781;54.094;13.428;2022-08-07T01:38:55;102666.03;;;15.12;56.87
46045;BME280;31781;54.094;13.428;2022-08-07T01:43:58;102667.84;;;15.05;58.43
46045;BME280;31781;54.094;13.428;2022-08-07T01:49:07;102666.75;;;14.99;58.19
46045;BME280;31781;54.094;13.428;2022-08-07T01:54:18;102671.09;;;14.94;57.01
46045;BME280;31781;54.094;13.428;2022-08-07T01:59:41;102666.19;;;14.89;57.48
46045;BME280;31781;54.094;13.428;2022-08-07T02:04:55;102676.19;;;14.82;58.17
46045;BME280;31781;54.094;13.428;2022-08-07T02:10:00;102675.09;;;14.77;57.15
46045;BME280;31781;54.094;13.428;2022-08-07T02:15:06;102675.66;;;14.72;59.11
46045;BME280;31781;54.094;13.428;2022-08-07T02:20:16;102678.94;;;14.68;58.91
46045;BME280;31781;54.094;13.428;2022-08-07T02:25:25;102680.34;;;14.63;57.47
46045;BME280;31781;54.094;13.428;2022-08-07T02:30:49;102679.25;;;14.58;59.67
46045;BME280;31781;54.094;13.428;2022-08-07T02:35:59;102677.06;;;14.53;59.72
46045;BME280;31781;54.094;13.428;2022-08-07T02:41:23;102678.69;;;14.48;57.75
46045;BME280;31781;54.094;13.428;2022-08-07T02:46:38;102675.62;;;14.43;59.67
46045;BME280;31781;54.094;13.428;2022-08-07T02:52:01;102677.06;;;14.39;59.77
46045;BME280;31781;54.094;13.428;2022-08-07T02:57:07;102674.53;;;14.37;57.75
46045;BME280;31781;54.094;13.428;2022-08-07T03:02:15;102681.37;;;14.33;59.02
46045;BME280;31781;54.094;13.428;2022-08-07T03:07:24;102681.94;;;14.29;59.73
46045;BME280;31781;54.094;13.428;2022-08-07T03:12:48;102680.41;;;14.26;58.00
46045;BME280;31781;54.094;13.428;2022-08-07T03:17:52;102679.25;;;14.21;60.33
46045;BME280;31781;54.094;13.428;2022-08-07T03:23:03;102673.47;;;14.15;60.45
46045;BME280;31781;54.094;13.428;2022-08-07T03:28:19;102667.34;;;14.13;58.75
46045;BME280;31781;54.094;13.428;2022-08-07T03:33:41;102673.38;;;14.09;60.71
46045;BME280;31781;54.094;13.428;2022-08-07T03:38:51;102675.62;;;14.05;60.68
46045;BME280;31781;54.094;13.428;2022-08-07T03:44:10;102679.72;;;14.09;57.71
46045;BME280;31781;54.094;13.428;2022-08-07T03:49:15;102674.03;;;13.96;59.15
46045;BME280;31781;54.094;13.428;2022-08-07T03:54:18;102674.37;;;13.93;60.84
46045;BME280;31781;54.094;13.428;2022-08-07T03:59:47;102683.81;;;13.91;61.14
46045;BME280;31781;54.094;13.428;2022-08-07T04:05:05;102674.75;;;13.90;59.45
46045;BME280;31781;54.094;13.428;2022-08-07T04:10:08;102686.25;;;14.23;60.45
46045;BME280;31781;54.094;13.428;2022-08-07T04:15:25;102680.19;;;14.13;60.86
46045;BME280;31781;54.094;13.428;2022-08-07T04:20:29;102693.88;;;14.13;59.34
46045;BME280;31781;54.094;13.428;2022-08-07T04:25:36;102692.16;;;14.12;61.28
46045;BME280;31781;54.094;13.428;2022-08-07T04:30:47;102693.03;;;14.12;61.01
46045;BME280;31781;54.094;13.428;2022-08-07T04:35:58;102690.75;;;14.16;59.65
46045;BME280;31781;54.094;13.428;2022-08-07T04:41:08;102696.53;;;14.21;61.57
46045;BME280;31781;54.094;13.428;2022-08-07T04:46:30;102700.41;;;14.27;61.33
46045;BME280;31781;54.094;13.428;2022-08-07T04:52:01;102700.00;;;14.38;59.04
46045;BME280;31781;54.094;13.428;2022-08-07T04:57:10;102707.09;;;14.47;59.92
46045;BME280;31781;54.094;13.428;2022-08-07T05:02:52;102702.00;;;14.58;60.08
46045;BME280;31781;54.094;13.428;2022-08-07T05:08:01;102697.41;;;14.74;58.84
46045;BME280;31781;54.094;13.428;2022-08-07T05:13:06;102714.37;;;14.84;60.75
46045;BME280;31781;54.094;13.428;2022-08-07T05:18:39;102709.75;;;14.99;60.90
46045;BME280;31781;54.094;13.428;2022-08-07T05:23:48;102708.50;;;15.16;59.06
46045;BME280;31781;54.094;13.428;2022-08-07T05:28:55;102717.38;;;15.33;60.24
46045;BME280;31781;54.094;13.428;2022-08-07T05:39:24;102720.84;;;15.77;57.94
46045;BME280;31781;54.094;13.428;2022-08-07T05:44:47;102725.63;;;15.90;58.64
46045;BME280;31781;54.094;13.428;2022-08-07T05:50:11;102729.19;;;16.12;59.10
46045;BME280;31781;54.094;13.428;2022-08-07T05:55:20;102727.25;;;16.33;58.68
46045;BME280;31781;54.094;13.428;2022-08-07T06:00:23;102731.50;;;16.57;57.47
46045;BME280;31781;54.094;13.428;2022-08-07T06:05:29;102730.38;;;16.79;57.52
46045;BME280;31781;54.094;13.428;2022-08-07T06:10:38;102729.69;;;17.05;56.99
46045;BME280;31781;54.094;13.428;2022-08-07T06:15:44;102726.44;;;17.29;56.18
46045;BME280;31781;54.094;13.428;2022-08-07T06:20:51;102721.22;;;17.54;55.67
46045;BME280;31781;54.094;13.428;2022-08-07T06:26:20;102726.59;;;17.82;55.38
46045;BME280;31781;54.094;13.428;2022-08-07T06:31:28;102722.22;;;18.14;54.00
46045;BME280;31781;54.094;13.428;2022-08-07T06:36:51;102730.25;;;18.41;53.10
46045;BME280;31781;54.094;13.428;2022-08-07T06:42:03;102725.16;;;18.71;52.72
46045;BME280;31781;54.094;13.428;2022-08-07T06:47:09;102729.97;;;19.02;52.20
46045;BME280;31781;54.094;13.428;2022-08-07T06:52:16;102726.25;;;19.34;51.81
46045;BME280;31781;54.094;13.428;2022-08-07T06:57:37;102723.12;;;19.69;49.73
46045;BME280;31781;54.094;13.428;2022-08-07T07:02:53;102719.06;;;20.03;49.80
46045;BME280;31781;54.094;13.428;2022-08-07T07:08:02;102713.31;;;20.35;47.91
46045;BME280;31781;54.094;13.428;2022-08-07T07:13:19;102715.56;;;20.63;46.97
46045;BME280;31781;54.094;13.428;2022-08-07T07:18:47;102713.84;;;20.87;48.33
46045;BME280;31781;54.094;13.428;2022-08-07T07:23:53;102709.72;;;21.14;46.78
46045;BME280;31781;54.094;13.428;2022-08-07T07:29:21;102704.09;;;21.39;46.22
46045;BME280;31781;54.094;13.428;2022-08-07T07:34:47;102705.63;;;21.65;47.15
46045;BME280;31781;54.094;13.428;2022-08-07T07:39:53;102705.03;;;21.93;45.60
46045;BME280;31781;54.094;13.428;2022-08-07T07:45:06;102712.69;;;22.20;45.41
46045;BME280;31781;54.094;13.428;2022-08-07T07:50:17;102698.09;;;22.48;45.97
46045;BME280;31781;54.094;13.428;2022-08-07T07:55:39;102694.50;;;22.71;44.56
46045;BME280;31781;54.094;13.428;2022-08-07T08:01:01;102691.72;;;22.94;44.92
46045;BME280;31781;54.094;13.428;2022-08-07T08:06:25;102695.72;;;23.26;44.39
46045;BME280;31781;54.094;13.428;2022-08-07T08:16:50;102677.97;;;23.84;43.96
46045;BME280;31781;54.094;13.428;2022-08-07T08:21:56;102686.56;;;23.99;41.75
46045;BME280;31781;54.094;13.428;2022-08-07T08:27:05;102690.38;;;24.10;40.70
46045;BME280;31781;54.094;13.428;2022-08-07T08:37:30;102683.34;;;24.74;41.25
46045;BME280;31781;54.094;13.428;2022-08-07T08:43:01;102680.03;;;24.94;39.55
46045;BME280;31781;54.094;13.428;2022-08-07T08:48:08;102685.41;;;25.00;39.42
46045;BME280;31781;54.094;13.428;2022-08-07T08:53:26;102676.78;;;25.24;38.75
46045;BME280;31781;54.094;13.428;2022-08-07T09:04:04;102672.25;;;25.66;39.71
46045;BME280;31781;54.094;13.428;2022-08-07T09:09:23;102671.72;;;25.69;39.11
46045;BME280;31781;54.094;13.428;2022-08-07T09:14:39;102671.25;;;25.77;37.70
46045;BME280;31781;54.094;13.428;2022-08-07T09:20:03;102669.88;;;25.80;37.06
46045;BME280;31781;54.094;13.428;2022-08-07T09:30:55;102668.06;;;25.95;38.95
46045;BME280;31781;54.094;13.428;2022-08-07T09:36:03;102667.09;;;25.80;38.71
46045;BME280;31781;54.094;13.428;2022-08-07T09:46:37;102651.44;;;25.74;38.41
46045;BME280;31781;54.094;13.428;2022-08-07T09:52:07;102641.50;;;25.83;38.27
46045;BME280;31781;54.094;13.428;2022-08-07T09:58:08;102640.00;;;26.07;37.71
46045;BME280;31781;54.094;13.428;2022-08-07T10:03:35;102633.84;;;26.37;38.86
46045;BME280;31781;54.094;13.428;2022-08-07T10:09:27;102634.63;;;26.74;37.87
46045;BME280;31781;54.094;13.428;2022-08-07T10:15:17;102625.81;;;27.02;37.90
46045;BME280;31781;54.094;13.428;2022-08-07T10:26:19;102601.69;;;27.64;37.35
46045;BME280;31781;54.094;13.428;2022-08-07T10:31:41;102591.31;;;27.69;35.28
46045;BME280;31781;54.094;13.428;2022-08-07T10:37:01;102592.72;;;27.77;34.95
46045;BME280;31781;54.094;13.428;2022-08-07T10:42:27;102588.22;;;27.91;34.64
46045;BME280;31781;54.094;13.428;2022-08-07T10:47:58;102569.50;;;28.12;36.14
46045;BME280;31781;54.094;13.428;2022-08-07T10:53:17;102572.81;;;28.24;32.92
46045;BME280;31781;54.094;13.428;2022-08-07T10:58:38;102571.97;;;28.33;31.32
46045;BME280;31781;54.094;13.428;2022-08-07T11:03:58;102563.53;;;28.43;32.16
46045;BME280;31781;54.094;13.428;2022-08-07T11:09:27;102565.69;;;28.72;32.80
46045;BME280;31781;54.094;13.428;2022-08-07T11:14:54;102561.87;;;29.01;31.31
46045;BME280;31781;54.094;13.428;2022-08-07T11:20:12;102552.19;;;29.33;31.49
46045;BME280;31781;54.094;13.428;2022-08-07T11:25:22;102548.56;;;29.66;32.38
46045;BME280;31781;54.094;13.428;2022-08-07T11:30:33;102543.69;;;29.77;31.59
46045;BME280;31781;54.094;13.428;2022-08-07T11:35:56;102536.22;;;29.67;30.07
46045;BME280;31781;54.094;13.428;2022-08-07T11:41:12;102529.28;;;29.55;31.59
46045;BME280;31781;54.094;13.428;2022-08-07T11:46:48;102526.59;;;29.44;29.56
46045;BME280;31781;54.094;13.428;2022-08-07T11:52:18;102528.78;;;29.47;31.28
46045;BME280;31781;54.094;13.428;2022-08-07T11:57:41;102523.94;;;29.58;31.32
46045;BME280;31781;54.094;13.428;2022-08-07T12:03:14;102514.19;;;29.79;30.37
46045;BME280;31781;54.094;13.428;2022-08-07T12:08:52;102512.53;;;30.07;29.34
46045;BME280;31781;54.094;13.428;2022-08-07T12:14:02;102515.69;;;30.24;31.05
46045;BME280;31781;54.094;13.428;2022-08-07T12:19:12;102510.56;;;30.31;28.44
46045;BME280;31781;54.094;13.428;2022-08-07T12:24:33;102514.09;;;30.18;27.81
46045;BME280;31781;54.094;13.428;2022-08-07T12:29:45;102512.81;;;30.06;29.47
46045;BME280;31781;54.094;13.428;2022-08-07T12:35:08;102491.41;;;30.15;28.74
46045;BME280;31781;54.094;13.428;2022-08-07T12:40:16;102483.22;;;30.18;29.69
46045;BME280;31781;54.094;13.428;2022-08-07T12:45:46;102492.28;;;30.34;27.80
46045;BME280;31781;54.094;13.428;2022-08-07T12:51:07;102479.75;;;30.26;27.45
46045;BME280;31781;54.094;13.428;2022-08-07T12:56:23;102477.66;;;30.13;28.75
46045;BME280;31781;54.094;13.428;2022-08-07T13:07:13;102476.69;;;29.99;29.54
46045;BME280;31781;54.094;13.428;2022-08-07T13:12:50;102476.31;;;30.06;30.87
46045;BME280;31781;54.094;13.428;2022-08-07T13:18:07;102463.91;;;30.12;30.12
46045;BME280;31781;54.094;13.428;2022-08-07T13:23:38;102470.94;;;30.09;27.20
46045;BME280;31781;54.094;13.428;2022-08-07T13:29:09;102468.50;;;30.03;29.64
46045;BME280;31781;54.094;13.428;2022-08-07T13:34:20;102470.53;;;29.97;29.88
46045;BME280;31781;54.094;13.428;2022-08-07T13:39:46;102473.78;;;29.85;30.92
46045;BME280;31781;54.094;13.428;2022-08-07T13:45:11;102475.25;;;29.73;32.10
46045;BME280;31781;54.094;13.428;2022-08-07T13:50:37;102463.03;;;29.64;31.43
46045;BME280;31781;54.094;13.428;2022-08-07T13:56:06;102459.75;;;29.52;30.72
46045;BME280;31781;54.094;13.428;2022-08-07T14:01:14;102453.97;;;29.38;32.60
46045;BME280;31781;54.094;13.428;2022-08-07T14:06:23;102445.69;;;29.23;31.76
46045;BME280;31781;54.094;13.428;2022-08-07T14:11:44;102441.31;;;29.12;32.22
46045;BME280;31781;54.094;13.428;2022-08-07T14:17:02;102443.06;;;29.02;33.16
46045;BME280;31781;54.094;13.428;2022-08-07T14:22:25;102438.03;;;28.99;33.86
46045;BME280;31781;54.094;13.428;2022-08-07T14:27:49;102432.19;;;28.96;34.08
46045;BME280;31781;54.094;13.428;2022-08-07T14:33:15;102446.78;;;28.93;33.21
46045;BME280;31781;54.094;13.428;2022-08-07T14:38:25;102433.87;;;28.92;32.88
46045;BME280;31781;54.094;13.428;2022-08-07T14:43:40;102437.56;;;28.87;32.25
46045;BME280;31781;54.094;13.428;2022-08-07T14:49:04;102436.78;;;28.82;33.63
46045;BME280;31781;54.094;13.428;2022-08-07T14:54:31;102430.53;;;28.90;33.91
46045;BME280;31781;54.094;13.428;2022-08-07T15:00:01;102427.09;;;28.98;32.72
46045;BME280;31781;54.094;13.428;2022-08-07T15:05:08;102423.22;;;28.94;33.26
46045;BME280;31781;54.094;13.428;2022-08-07T15:10:38;102424.66;;;28.86;32.72
46045;BME280;31781;54.094;13.428;2022-08-07T15:16:06;102417.41;;;28.85;33.36
46045;BME280;31781;54.094;13.428;2022-08-07T15:21:16;102427.69;;;28.95;34.16
46045;BME280;31781;54.094;13.428;2022-08-07T15:26:42;102424.88;;;28.95;33.10
46045;BME280;31781;54.094;13.428;2022-08-07T15:31:51;102421.56;;;28.93;33.32
46045;BME280;31781;54.094;13.428;2022-08-07T15:37:04;102426.31;;;28.92;34.35
46045;BME280;31781;54.094;13.428;2022-08-07T15:42:08;102421.88;;;28.86;34.11
46045;BME280;31781;54.094;13.428;2022-08-07T15:47:56;102418.81;;;28.83;33.78
46045;BME280;31781;54.094;13.428;2022-08-07T15:53:07;102432.28;;;28.81;34.71
46045;BME280;31781;54.094;13.428;2022-08-07T15:58:14;102428.91;;;28.79;34.49
46045;BME280;31781;54.094;13.428;2022-08-07T16:03:30;102428.12;;;28.73;34.17
46045;BME280;31781;54.094;13.428;2022-08-07T16:08:48;102423.41;;;28.69;34.44
46045;BME280;31781;54.094;13.428;2022-08-07T16:14:05;102426.78;;;28.61;33.72
46045;BME280;31781;54.094;13.428;2022-08-07T16:19:28;102420.66;;;28.53;35.05
46045;BME280;31781;54.094;13.428;2022-08-07T16:24:49;102424.94;;;28.41;35.26
46045;BME280;31781;54.094;13.428;2022-08-07T16:30:07;102426.47;;;28.13;35.22
46045;BME280;31781;54.094;13.428;2022-08-07T16:35:42;102429.34;;;27.83;35.61
46045;BME280;31781;54.094;13.428;2022-08-07T16:46:40;102437.78;;;27.27;36.20
46045;BME280;31781;54.094;13.428;2022-08-07T16:52:19;102434.97;;;27.02;36.39
46045;BME280;31781;54.094;13.428;2022-08-07T16:57:54;102429.06;;;26.73;36.84
46045;BME280;31781;54.094;13.428;2022-08-07T17:03:15;102433.47;;;26.44;37.04
46045;BME280;31781;54.094;13.428;2022-08-07T17:08:33;102436.72;;;26.21;37.37
46045;BME280;31781;54.094;13.428;2022-08-07T17:14:01;102448.28;;;25.92;37.30
46045;BME280;31781;54.094;13.428;2022-08-07T17:19:21;102441.66;;;25.61;38.01
46045;BME280;31781;54.094;13.428;2022-08-07T17:25:02;102436.47;;;25.38;37.80
46045;BME280;31781;54.094;13.428;2022-08-07T17:30:11;102435.44;;;25.17;38.07
46045;BME280;31781;54.094;13.428;2022-08-07T17:40:44;102444.25;;;25.04;38.72
46045;BME280;31781;54.094;13.428;2022-08-07T17:51:15;102443.72;;;24.81;38.95
46045;BME280;31781;54.094;13.428;2022-08-07T17:56:25;102440.44;;;24.62;39.24
46045;BME280;31781;54.094;13.428;2022-08-07T18:01:36;102431.16;;;24.51;39.80
46045;BME280;31781;54.094;13.428;2022-08-07T18:06:55;102437.69;;;24.40;39.88
46045;BME280;31781;54.094;13.428;2022-08-07T18:12:26;102428.06;;;24.26;39.39
46045;BME280;31781;54.094;13.428;2022-08-07T18:17:37;102435.69;;;24.14;39.64
46045;BME280;31781;54.094;13.428;2022-08-07T18:23:17;102431.84;;;23.98;39.11
46045;BME280;31781;54.094;13.428;2022-08-07T18:29:00;102438.62;;;23.86;39.50
46045;BME280;31781;54.094;13.428;2022-08-07T18:34:16;102438.75;;;23.74;39.62
46045;BME280;31781;54.094;13.428;2022-08-07T18:40:00;102436.59;;;23.59;39.99
46045;BME280;31781;54.094;13.428;2022-08-07T18:45:46;102444.44;;;23.46;40.08
46045;BME280;31781;54.094;13.428;2022-08-07T18:51:18;102444.72;;;23.33;39.91
46045;BME280;31781;54.094;13.428;2022-08-07T19:02:05;102463.41;;;23.04;40.87
46045;BME280;31781;54.094;13.428;2022-08-07T19:07:37;102469.19;;;22.86;42.12
46045;BME280;31781;54.094;13.428;2022-08-07T19:13:03;102469.97;;;22.69;42.55
46045;BME280;31781;54.094;13.428;2022-08-07T19:18:21;102468.19;;;22.52;42.41
46045;BME280;31781;54.094;13.428;2022-08-07T19:23:39;102470.09;;;22.35;42.19
46045;BME280;31781;54.094;13.428;2022-08-07T19:29:03;102470.00;;;22.18;42.98
46045;BME280;31781;54.094;13.428;2022-08-07T19:34:32;102475.69;;;22.00;43.04
46045;BME280;31781;54.094;13.428;2022-08-07T19:39:43;102488.31;;;21.84;43.02
46045;BME280;31781;54.094;13.428;2022-08-07T19:44:59;102477.13;;;21.67;43.51
46045;BME280;31781;54.094;13.428;2022-08-07T19:50:15;102483.16;;;21.53;44.77
46045;BME280;31781;54.094;13.428;2022-08-07T19:55:41;102485.69;;;21.43;44.04
46045;BME280;31781;54.094;13.428;2022-08-07T20:00:58;102493.34;;;21.29;45.03
46045;BME280;31781;54.094;13.428;2022-08-07T20:06:08;102492.50;;;21.17;45.55
46045;BME280;31781;54.094;13.428;2022-08-07T20:11:29;102486.03;;;21.05;44.86
46045;BME280;31781;54.094;13.428;2022-08-07T20:16:55;102483.47;;;20.92;46.12
46045;BME280;31781;54.094;13.428;2022-08-07T20:22:06;102491.50;;;20.81;46.60
46045;BME280;31781;54.094;13.428;2022-08-07T20:27:14;102482.69;;;20.73;45.57
46045;BME280;31781;54.094;13.428;2022-08-07T20:32:40;102483.50;;;20.62;47.13
46045;BME280;31781;54.094;13.428;2022-08-07T20:37:51;102481.88;;;20.54;47.10
46045;BME280;31781;54.094;13.428;2022-08-07T20:43:10;102483.56;;;20.55;45.40
46045;BME280;31781;54.094;13.428;2022-08-07T20:48:22;102475.44;;;20.42;46.59
46045;BME280;31781;54.094;13.428;2022-08-07T20:53:32;102478.06;;;20.37;47.79
46045;BME280;31781;54.094;13.428;2022-08-07T20:59:03;102481.50;;;20.32;47.98
46045;BME280;31781;54.094;13.428;2022-08-07T21:04:27;102485.84;;;20.28;46.78
46045;BME280;31781;54.094;13.428;2022-08-07T21:09:34;102493.09;;;20.23;47.71
46045;BME280;31781;54.094;13.428;2022-08-07T21:15:05;102478.88;;;20.19;48.20
46045;BME280;31781;54.094;13.428;2022-08-07T21:20:20;102474.91;;;20.15;47.39
46045;BME280;31781;54.094;13.428;2022-08-07T21:25:51;102481.06;;;20.17;46.86
46045;BME280;31781;54.094;13.428;2022-08-07T21:31:10;102481.81;;;20.06;46.78
46045;BME280;31781;54.094;13.428;2022-08-07T21:36:22;102484.88;;;19.98;47.97
46045;BME280;31781;54.094;13.428;2022-08-07T21:41:41;102488.31;;;19.93;47.59
46045;BME280;31781;54.094;13.428;2022-08-07T21:47:07;102493.06;;;19.86;47.61
46045;BME280;31781;54.094;13.428;2022-08-07T21:52:26;102493.63;;;19.77;50.12
46045;BME280;31781;54.094;13.428;2022-08-07T21:57:50;102493.94;;;19.62;50.39
46045;BME280;31781;54.094;13.428;2022-08-07T22:08:33;102486.00;;;19.48;49.53
46045;BME280;31781;54.094;13.428;2022-08-07T22:13:40;102500.97;;;19.33;51.14
46045;BME280;31781;54.094;13.428;2022-08-07T22:18:59;102490.87;;;19.21;52.77
46045;BME280;31781;54.094;13.428;2022-08-07T22:24:15;102490.13;;;19.07;52.13
46045;BME280;31781;54.094;13.428;2022-08-07T22:29:24;102494.22;;;18.98;52.46
46045;BME280;31781;54.094;13.428;2022-08-07T22:34:52;102490.87;;;18.89;51.93
46045;BME280;31781;54.094;13.428;2022-08-07T22:40:10;102498.34;;;18.82;51.73
46045;BME280;31781;54.094;13.428;2022-08-07T22:45:19;102497.34;;;18.77;50.01
46045;BME280;31781;54.094;13.428;2022-08-07T22:51:15;102489.91;;;18.71;52.36
46045;BME280;31781;54.094;13.428;2022-08-07T22:56:43;102490.81;;;18.65;51.21
46045;BME280;31781;54.094;13.428;2022-08-07T23:07:44;102491.91;;;18.57;50.44
46045;BME280;31781;54.094;13.428;2022-08-07T23:13:12;102500.41;;;18.49;53.03
46045;BME280;31781;54.094;13.428;2022-08-07T23:18:44;102508.69;;;18.42;52.65
46045;BME280;31781;54.094;13.428;2022-08-07T23:24:15;102506.59;;;18.38;52.03
46045;BME280;31781;54.094;13.428;2022-08-07T23:29:48;102505.13;;;18.35;50.77
46045;BME280;31781;54.094;13.428;2022-08-07T23:35:30;102501.72;;;18.33;51.00
46045;BME280;31781;54.094;13.428;2022-08-07T23:40:41;102510.22;;;18.32;52.40
46045;BME280;31781;54.094;13.428;2022-08-07T23:46:04;102510.66;;;18.29;53.15
46045;BME280;31781;54.094;13.428;2022-08-07T23:51:22;102507.91;;;18.29;51.76
46045;BME280;31781;54.094;13.428;2022-08-07T23:56:54;102505.56;;;18.26;52.30
